New York City, New York
Current Conditions -  °F | °C
As of 9:36 AM on Thursday 27 Nov 2014 (Local Time) from KNYC Reporting Station
Overcast Overcast  
Wind Chill: 33°   Ceiling: 1500
Heat Index: 37°   Visibility: 10mi
Dew Point: 29°   Wind: 5mph
Humidity: 73%   Direction: NA
Pressure: 30.02"   Gusts: NA
Location:  40.71°N, 74.01°W
Report Text: KNYC 271436Z AUTO VRB04KT 10SM BKN015 OVC050 03/M02 A3002 RMK AO2 T00281017 $
Loading
Personal Weather Stations






























Interactive Weather Map New forecast layout! Learn more

10-Day Weather Forecast

Advertisements
Track Severe Weather on mobile